createdAt,value
2022-11-28T00:01:26.003Z,19.50
2022-11-28T00:03:52.808Z,19.60
2022-11-28T00:06:19.983Z,20.77
2022-11-28T00:08:47.106Z,19.00
2022-11-28T00:11:15.511Z,18.17
2022-11-28T00:13:42.725Z,17.48
2022-11-28T00:16:10.048Z,16.73
2022-11-28T00:18:36.621Z,18.60
2022-11-28T00:21:05.681Z,16.90
2022-11-28T00:23:33.346Z,16.80
2022-11-28T00:26:01.477Z,16.02
2022-11-28T00:28:28.074Z,17.13
2022-11-28T00:30:54.618Z,16.95
2022-11-28T00:33:21.165Z,17.75
2022-11-28T00:35:47.741Z,16.65
2022-11-28T00:38:14.411Z,18.08
2022-11-28T00:40:40.966Z,17.75
2022-11-28T00:43:07.543Z,17.15
2022-11-28T00:45:34.104Z,18.17
2022-11-28T00:48:00.669Z,18.27
2022-11-28T00:50:27.246Z,18.65
2022-11-28T00:52:53.740Z,18.55
2022-11-28T00:55:20.185Z,19.63
2022-11-28T00:57:46.695Z,19.63
2022-11-28T01:00:13.708Z,19.70
2022-11-28T01:02:40.270Z,19.73
2022-11-28T01:05:07.262Z,21.05
2022-11-28T01:07:34.086Z,21.48
2022-11-28T01:10:00.672Z,21.60
2022-11-28T01:12:27.232Z,20.40
2022-11-28T01:14:53.847Z,23.60
2022-11-28T01:17:20.609Z,23.83
2022-11-28T01:19:47.111Z,23.75
2022-11-28T01:22:13.601Z,24.02
2022-11-28T01:24:40.321Z,25.33
2022-11-28T01:27:08.320Z,24.70
2022-11-28T01:29:34.848Z,23.77
2022-11-28T01:32:01.412Z,25.42
2022-11-28T01:34:27.982Z,24.13
2022-11-28T01:36:54.621Z,23.75
2022-11-28T01:39:21.121Z,24.80
2022-11-28T01:41:47.629Z,23.92
2022-11-28T01:44:14.046Z,23.90
2022-11-28T01:46:40.609Z,23.75
2022-11-28T01:49:13.237Z,25.02
2022-11-28T01:51:44.740Z,25.10
2022-11-28T01:54:12.444Z,24.40
2022-11-28T01:56:52.956Z,23.08
2022-11-28T01:59:20.668Z,24.85
2022-11-28T02:01:47.376Z,23.85
2022-11-28T02:04:14.435Z,24.52
2022-11-28T02:06:41.928Z,22.70
2022-11-28T02:09:13.942Z,23.73
2022-11-28T02:11:57.163Z,26.20
2022-11-28T02:14:42.452Z,23.30
2022-11-28T02:17:47.252Z,22.85
2022-11-28T02:20:38.111Z,20.70
2022-11-28T02:23:11.605Z,21.20
2022-11-28T02:26:13.882Z,20.38
2022-11-28T02:28:58.519Z,20.08
2022-11-28T02:31:36.530Z,18.70
2022-11-28T02:34:29.797Z,19.58
2022-11-28T02:37:04.715Z,20.92
2022-11-28T02:39:50.196Z,19.27
2022-11-28T02:42:33.349Z,21.10
2022-11-28T02:45:34.572Z,20.20
2022-11-28T02:48:08.965Z,18.48
2022-11-28T02:50:42.048Z,18.83
2022-11-28T02:53:18.525Z,19.77
2022-11-28T02:55:45.090Z,17.73
2022-11-28T02:58:12.332Z,18.00
2022-11-28T03:00:41.312Z,18.63
2022-11-28T03:03:32.283Z,18.88
2022-11-28T03:06:03.430Z,18.15
2022-11-28T03:08:37.585Z,18.25
2022-11-28T03:11:13.128Z,19.35
2022-11-28T03:13:54.876Z,21.08
2022-11-28T03:16:45.155Z,20.75
2022-11-28T03:19:20.120Z,20.95
2022-11-28T03:22:08.412Z,21.70
2022-11-28T03:24:41.046Z,22.00
2022-11-28T03:27:13.097Z,21.80
2022-11-28T03:29:43.401Z,23.70
2022-11-28T03:32:13.693Z,21.90
2022-11-28T03:34:46.321Z,22.55
2022-11-28T03:37:25.121Z,23.67
2022-11-28T03:39:58.825Z,22.33
2022-11-28T03:42:29.575Z,24.05
2022-11-28T03:45:23.199Z,24.02
2022-11-28T03:47:55.975Z,25.90
2022-11-28T03:50:29.206Z,25.65
2022-11-28T03:53:03.189Z,25.38
2022-11-28T03:55:55.488Z,25.85
2022-11-28T03:58:35.281Z,25.05
2022-11-28T04:01:09.561Z,25.45
2022-11-28T04:03:54.447Z,25.27
2022-11-28T04:06:24.419Z,25.98
2022-11-28T04:09:14.712Z,25.90
2022-11-28T04:11:51.481Z,27.00
2022-11-28T04:14:29.511Z,27.10
2022-11-28T04:17:05.787Z,27.25
2022-11-28T04:19:42.295Z,28.38
2022-11-28T04:22:35.904Z,26.90
2022-11-28T04:25:06.660Z,28.02
2022-11-28T04:27:42.557Z,27.40
2022-11-28T04:30:10.545Z,27.85
2022-11-28T04:32:40.347Z,30.08
2022-11-28T04:35:10.079Z,29.35
2022-11-28T04:37:38.903Z,29.52
2022-11-28T04:40:08.102Z,28.48
2022-11-28T04:42:40.527Z,31.00
2022-11-28T04:45:14.503Z,32.08
2022-11-28T04:47:41.445Z,30.05
2022-11-28T04:50:08.483Z,29.83
2022-11-28T04:52:53.797Z,31.67
2022-11-28T04:55:37.660Z,31.52
2022-11-28T04:58:19.031Z,30.70
2022-11-28T05:00:47.020Z,31.13
2022-11-28T05:03:13.761Z,33.58
2022-11-28T05:05:49.446Z,34.00
2022-11-28T05:08:17.696Z,34.25
2022-11-28T05:10:44.644Z,32.80
2022-11-28T05:13:11.178Z,34.85
2022-11-28T05:15:37.799Z,35.92
2022-11-28T05:18:04.823Z,34.97
2022-11-28T05:20:33.227Z,33.35
2022-11-28T05:22:59.701Z,34.95
2022-11-28T05:25:26.190Z,34.35
2022-11-28T05:27:53.052Z,34.22
2022-11-28T05:30:19.718Z,34.53
2022-11-28T05:32:46.237Z,38.42
2022-11-28T05:35:12.725Z,36.35
2022-11-28T05:37:39.347Z,39.97
2022-11-28T05:40:06.855Z,37.38
2022-11-28T05:42:34.937Z,38.67
2022-11-28T05:45:01.651Z,36.72
2022-11-28T05:47:31.740Z,38.67
2022-11-28T05:49:58.398Z,36.70
2022-11-28T05:52:24.913Z,37.50
2022-11-28T05:54:51.403Z,37.55
2022-11-28T05:57:17.863Z,35.67
2022-11-28T05:59:44.633Z,35.95
2022-11-28T06:02:11.382Z,36.58
2022-11-28T06:04:38.136Z,38.20
2022-11-28T06:07:04.657Z,39.70
2022-11-28T06:09:31.221Z,35.08
2022-11-28T06:11:57.891Z,36.83
2022-11-28T06:14:24.399Z,39.70
2022-11-28T06:16:50.979Z,34.53
2022-11-28T06:19:17.502Z,37.83
2022-11-28T06:21:44.229Z,42.10
2022-11-28T06:24:10.977Z,40.67
2022-11-28T06:26:37.545Z,39.25
2022-11-28T06:29:04.482Z,38.25
2022-11-28T06:31:31.087Z,42.28
2022-11-28T06:33:58.275Z,43.38
2022-11-28T06:36:26.428Z,44.83
2022-11-28T06:38:53.483Z,44.67
2022-11-28T06:41:20.829Z,44.58
2022-11-28T06:43:47.426Z,44.85
2022-11-28T06:46:16.995Z,43.05
2022-11-28T06:48:49.050Z,42.95
2022-11-28T06:51:16.146Z,46.03
2022-11-28T06:53:43.087Z,44.45
2022-11-28T06:56:13.925Z,43.33
2022-11-28T06:58:40.672Z,44.90
2022-11-28T07:01:13.549Z,41.47
2022-11-28T07:03:40.711Z,46.17
2022-11-28T07:06:08.031Z,45.78
2022-11-28T07:08:35.136Z,46.42
2022-11-28T07:11:09.420Z,46.40
2022-11-28T07:13:36.288Z,51.30
2022-11-28T07:16:03.089Z,52.45
2022-11-28T07:18:29.711Z,51.80
2022-11-28T07:20:56.399Z,53.53
2022-11-28T07:23:22.847Z,54.72
2022-11-28T07:25:49.293Z,55.55
2022-11-28T07:28:18.500Z,56.75
2022-11-28T07:30:48.473Z,55.95
2022-11-28T07:33:14.962Z,55.53
2022-11-28T07:35:41.456Z,53.70
2022-11-28T07:38:08.113Z,51.42
2022-11-28T07:40:34.567Z,57.78
2022-11-28T07:43:01.082Z,54.13
2022-11-28T07:45:41.904Z,59.90
2022-11-28T07:48:14.104Z,56.67
2022-11-28T07:50:40.923Z,58.05
2022-11-28T07:53:07.565Z,58.00
2022-11-28T07:55:35.857Z,59.00
2022-11-28T07:58:03.784Z,54.95
2022-11-28T08:00:30.453Z,56.38
2022-11-28T08:02:56.971Z,53.78
2022-11-28T08:05:23.458Z,53.88
2022-11-28T08:07:51.227Z,52.03
2022-11-28T08:10:18.648Z,53.58
2022-11-28T08:12:45.155Z,50.95
2022-11-28T08:15:11.737Z,48.15
2022-11-28T08:17:38.509Z,49.75
2022-11-28T08:20:05.724Z,46.33
2022-11-28T08:22:32.306Z,46.70
2022-11-28T08:24:58.788Z,46.88
2022-11-28T08:27:25.281Z,42.47
2022-11-28T08:29:53.533Z,44.97
2022-11-28T08:32:20.526Z,40.67
2022-11-28T08:34:46.995Z,37.67
2022-11-28T08:37:13.460Z,39.15
2022-11-28T08:39:40.268Z,40.22
2022-11-28T08:42:07.039Z,42.53
2022-11-28T08:44:33.733Z,38.67
2022-11-28T08:47:00.454Z,39.60
2022-11-28T08:49:27.010Z,39.67
2022-11-28T08:51:53.521Z,38.75
2022-11-28T08:54:20.981Z,38.08
2022-11-28T08:56:48.195Z,39.85
2022-11-28T08:59:14.785Z,34.95
2022-11-28T09:01:41.327Z,35.63
2022-11-28T09:04:07.929Z,34.10
2022-11-28T09:06:34.540Z,31.20
2022-11-28T09:09:02.999Z,32.38
2022-11-28T09:11:29.509Z,33.10
2022-11-28T09:13:56.649Z,33.65
2022-11-28T09:16:23.237Z,33.58
2022-11-28T09:18:49.769Z,33.72
2022-11-28T09:21:16.286Z,32.00
2022-11-28T09:23:44.062Z,35.83
2022-11-28T09:26:16.693Z,34.50
2022-11-28T09:28:43.425Z,37.25
2022-11-28T09:31:12.533Z,34.70
2022-11-28T09:33:39.106Z,36.10
2022-11-28T09:36:10.892Z,37.78
2022-11-28T09:38:38.421Z,38.38
2022-11-28T09:41:28.208Z,38.58
2022-11-28T09:44:19.384Z,37.17
2022-11-28T09:46:48.121Z,36.88
2022-11-28T09:49:41.580Z,37.47
2022-11-28T09:52:38.756Z,38.03
2022-11-28T09:55:11.331Z,36.63
2022-11-28T09:57:41.174Z,36.42
2022-11-28T10:00:17.576Z,38.72
2022-11-28T10:03:03.019Z,37.55
2022-11-28T10:05:37.706Z,37.53
2022-11-28T10:08:25.973Z,39.45
2022-11-28T10:11:06.210Z,39.47
2022-11-28T10:14:07.233Z,40.47
2022-11-28T10:17:08.718Z,38.13
2022-11-28T10:20:02.955Z,34.47
2022-11-28T10:23:06.812Z,36.83
2022-11-28T10:25:47.212Z,35.75
2022-11-28T10:28:17.511Z,32.80
2022-11-28T10:30:48.952Z,33.35
2022-11-28T10:33:25.498Z,33.55
2022-11-28T10:35:57.728Z,32.55
2022-11-28T10:38:27.600Z,33.10
2022-11-28T10:41:07.174Z,32.58
2022-11-28T10:43:47.451Z,31.70
2022-11-28T10:46:32.407Z,30.98
2022-11-28T10:49:20.071Z,30.63
2022-11-28T10:51:46.537Z,29.50
2022-11-28T10:54:24.142Z,28.50
2022-11-28T10:57:11.199Z,28.15
2022-11-28T11:00:12.291Z,26.98
2022-11-28T11:02:57.014Z,28.10
2022-11-28T11:05:32.675Z,26.97
2022-11-28T11:08:03.852Z,27.65
2022-11-28T11:10:39.340Z,25.40
2022-11-28T11:13:24.635Z,26.95
2022-11-28T11:16:04.421Z,28.65
2022-11-28T11:18:34.763Z,28.40
2022-11-28T11:21:22.773Z,31.25
2022-11-28T11:23:50.678Z,29.15
2022-11-28T11:26:29.852Z,28.50
2022-11-28T11:28:56.557Z,30.15
2022-11-28T11:31:28.532Z,31.42
2022-11-28T11:34:07.064Z,28.48
2022-11-28T11:36:37.088Z,28.30
2022-11-28T11:39:12.898Z,28.85
2022-11-28T11:41:47.195Z,30.52
2022-11-28T11:44:13.991Z,28.48
2022-11-28T11:46:58.558Z,29.35
2022-11-28T11:49:38.863Z,27.45
2022-11-28T11:52:22.244Z,26.63
2022-11-28T11:54:59.223Z,26.65
2022-11-28T11:57:36.520Z,25.15
2022-11-28T12:00:15.476Z,24.55
2022-11-28T12:03:07.757Z,23.20
2022-11-28T12:06:12.752Z,18.95
2022-11-28T12:08:37.244Z,17.58
2022-11-28T12:11:17.885Z,17.60
2022-11-28T12:13:44.759Z,16.17
2022-11-28T12:16:24.813Z,16.52
2022-11-28T12:19:00.273Z,17.40
2022-11-28T12:21:53.742Z,16.20
2022-11-28T12:24:38.848Z,15.63
2022-11-28T12:27:44.406Z,14.52
2022-11-28T12:30:19.669Z,15.17
2022-11-28T12:35:39.205Z,13.95
2022-11-28T12:38:24.618Z,14.45
2022-11-28T12:41:06.432Z,12.90
2022-11-28T12:43:46.664Z,14.30
2022-11-28T12:46:19.198Z,13.85
2022-11-28T12:49:17.580Z,14.15
2022-11-28T12:52:00.702Z,14.82
2022-11-28T12:54:50.442Z,14.32
2022-11-28T12:57:29.885Z,15.13
2022-11-28T13:00:08.774Z,15.55
2022-11-28T13:02:38.727Z,15.18
2022-11-28T13:05:20.046Z,14.15
2022-11-28T13:08:08.237Z,16.33
2022-11-28T13:10:42.760Z,14.77
2022-11-28T13:13:33.002Z,12.73
2022-11-28T13:16:08.552Z,12.48
2022-11-28T13:18:47.624Z,12.10
2022-11-28T13:21:20.003Z,12.25
2022-11-28T13:23:49.991Z,11.77
2022-11-28T13:26:46.527Z,11.90
2022-11-28T13:29:36.976Z,13.13
2022-11-28T13:32:15.663Z,12.07
2022-11-28T13:34:42.363Z,13.45
2022-11-28T13:40:41.311Z,12.30
2022-11-28T13:43:30.541Z,13.10
2022-11-28T13:45:57.130Z,13.00
2022-11-28T13:51:32.778Z,12.70
2022-11-28T13:54:26.186Z,12.73
2022-11-28T13:57:26.774Z,12.30
2022-11-28T14:00:02.596Z,11.27
2022-11-28T14:02:36.734Z,11.73
2022-11-28T14:05:04.059Z,10.43
2022-11-28T14:07:32.413Z,10.73
2022-11-28T14:10:26.882Z,10.63
2022-11-28T14:13:48.244Z,10.30
2022-11-28T14:16:35.780Z,11.15
2022-11-28T14:19:20.777Z,10.80
2022-11-28T14:21:52.988Z,10.43
2022-11-28T14:24:22.461Z,10.68
2022-11-28T14:26:57.841Z,12.23
2022-11-28T14:29:34.036Z,10.38
2022-11-28T14:32:28.526Z,12.35
2022-11-28T14:34:48.675Z,12.20
2022-11-28T14:37:21.506Z,12.30
2022-11-28T14:39:49.328Z,14.13
2022-11-28T14:42:36.897Z,13.07
2022-11-28T14:45:32.884Z,12.98
2022-11-28T14:48:27.936Z,13.27
2022-11-28T14:51:00.823Z,13.57
2022-11-28T14:53:36.935Z,11.95
2022-11-28T14:56:15.636Z,12.75
2022-11-28T14:58:50.015Z,13.32
2022-11-28T15:01:24.985Z,13.10
2022-11-28T15:04:24.699Z,12.65
2022-11-28T15:06:51.704Z,13.07
2022-11-28T15:09:25.660Z,14.07
2022-11-28T15:11:58.743Z,14.85
2022-11-28T15:14:29.195Z,16.00
2022-11-28T15:17:00.421Z,15.18
2022-11-28T15:19:30.805Z,17.08
2022-11-28T15:21:57.591Z,17.10
2022-11-28T15:24:25.136Z,17.02
2022-11-28T15:26:57.156Z,17.73
2022-11-28T15:29:26.773Z,17.42
2022-11-28T15:31:55.568Z,19.50
2022-11-28T15:34:33.090Z,18.35
2022-11-28T15:37:02.479Z,18.95
2022-11-28T15:39:39.862Z,20.98
2022-11-28T15:42:09.538Z,20.13
2022-11-28T15:44:39.312Z,21.33
2022-11-28T15:47:18.945Z,23.55
2022-11-28T15:49:45.551Z,24.95
2022-11-28T15:52:20.870Z,27.92
2022-11-28T15:54:51.440Z,31.40
2022-11-28T15:57:20.449Z,31.73
2022-11-28T15:59:47.039Z,31.35
2022-11-28T16:02:17.896Z,33.35
2022-11-28T16:04:45.347Z,34.80
2022-11-28T16:07:14.172Z,34.10
2022-11-28T16:09:59.786Z,37.00
2022-11-28T16:14:58.661Z,35.92
2022-11-28T16:17:32.236Z,39.38
2022-11-28T16:19:59.777Z,35.33
2022-11-28T16:22:37.395Z,36.45
2022-11-28T16:25:33.639Z,38.08
2022-11-28T16:28:00.350Z,35.30
2022-11-28T16:30:29.376Z,37.95
2022-11-28T16:32:56.508Z,40.40
2022-11-28T16:35:30.023Z,43.58
2022-11-28T16:38:16.640Z,46.58
2022-11-28T16:40:43.633Z,39.85
2022-11-28T16:43:42.636Z,37.88
2022-11-28T16:46:21.567Z,43.13
2022-11-28T16:48:59.055Z,48.80
2022-11-28T16:51:25.465Z,43.17
2022-11-28T16:53:55.163Z,44.67
2022-11-28T16:56:30.865Z,46.70
2022-11-28T16:59:08.743Z,45.40
2022-11-28T17:01:36.003Z,49.38
2022-11-28T17:04:02.806Z,46.60
2022-11-28T17:06:37.007Z,48.53
2022-11-28T17:09:08.955Z,47.72
2022-11-28T17:11:37.571Z,48.42
2022-11-28T17:14:10.169Z,43.63
2022-11-28T17:16:41.365Z,47.35
2022-11-28T17:19:08.473Z,47.72
2022-11-28T17:21:41.036Z,49.63
2022-11-28T17:24:27.585Z,48.75
2022-11-28T17:26:54.396Z,50.75
2022-11-28T17:29:21.634Z,48.47
2022-11-28T17:31:48.805Z,49.00
2022-11-28T17:34:20.287Z,50.40
2022-11-28T17:36:47.712Z,52.15
2022-11-28T17:39:14.739Z,52.03
2022-11-28T17:41:41.734Z,47.90
2022-11-28T17:44:22.353Z,46.13
2022-11-28T17:46:50.065Z,44.50
2022-11-28T17:49:16.994Z,46.17
2022-11-28T17:51:43.593Z,47.40
2022-11-28T17:54:16.267Z,50.20
2022-11-28T17:56:43.538Z,48.30
2022-11-28T17:59:13.896Z,47.42
2022-11-28T18:01:41.022Z,45.92
2022-11-28T18:04:07.711Z,49.42
2022-11-28T18:06:34.443Z,49.55
2022-11-28T18:09:05.953Z,46.58
2022-11-28T18:11:35.876Z,49.00
2022-11-28T18:14:02.344Z,46.17
2022-11-28T18:16:30.908Z,47.70
2022-11-28T18:18:57.559Z,47.72
2022-11-28T18:21:24.972Z,47.25
2022-11-28T18:23:51.689Z,45.58
2022-11-28T18:26:20.993Z,47.25
2022-11-28T18:28:47.716Z,50.45
2022-11-28T18:31:19.924Z,50.08
2022-11-28T18:33:49.412Z,47.90
2022-11-28T18:36:18.572Z,49.22
2022-11-28T18:38:45.200Z,46.67
2022-11-28T18:41:12.342Z,53.08
2022-11-28T18:43:39.169Z,52.10
2022-11-28T18:46:10.613Z,46.97
2022-11-28T18:48:38.546Z,47.50
2022-11-28T18:51:26.133Z,54.13
2022-11-28T18:53:54.321Z,48.90
2022-11-28T18:56:21.620Z,47.30
2022-11-28T18:58:51.767Z,50.83
2022-11-28T19:01:19.312Z,53.85
2022-11-28T19:03:51.096Z,54.78
2022-11-28T19:06:17.773Z,53.05
2022-11-28T19:08:44.265Z,52.45
2022-11-28T19:11:14.552Z,55.10
2022-11-28T19:13:45.762Z,55.75
2022-11-28T19:16:16.334Z,55.17
2022-11-28T19:18:44.053Z,54.83
2022-11-28T19:21:18.101Z,55.03
2022-11-28T19:23:44.693Z,55.90
2022-11-28T19:26:13.144Z,55.65
2022-11-28T19:28:40.953Z,54.72
2022-11-28T19:31:16.585Z,53.05
2022-11-28T19:33:44.028Z,52.03
2022-11-28T19:36:12.584Z,50.55
2022-11-28T19:38:39.370Z,50.78
2022-11-28T19:41:14.045Z,48.67
2022-11-28T19:43:40.851Z,52.05
2022-11-28T19:46:08.324Z,50.50
2022-11-28T19:48:36.494Z,50.42
2022-11-28T19:51:03.841Z,54.90
2022-11-28T19:53:31.303Z,62.90
2022-11-28T19:56:04.668Z,94.90
2022-11-28T19:58:31.765Z,65.55
2022-11-28T20:01:15.807Z,53.90
2022-11-28T20:03:42.750Z,57.03
2022-11-28T20:06:15.132Z,53.22
2022-11-28T20:08:42.277Z,52.75
2022-11-28T20:11:10.862Z,51.90
2022-11-28T20:13:37.764Z,47.97
2022-11-28T20:16:05.562Z,76.10
2022-11-28T20:18:32.684Z,74.45
2022-11-28T20:21:07.155Z,104.60
2022-11-28T20:23:34.289Z,84.75
2022-11-28T20:26:05.752Z,82.72
2022-11-28T20:28:34.122Z,81.70
2022-11-28T20:31:01.128Z,76.60
2022-11-28T20:33:28.129Z,68.43
2022-11-28T20:36:04.612Z,62.45
2022-11-28T20:38:31.203Z,54.30
2022-11-28T20:41:08.286Z,51.30
2022-11-28T20:43:36.910Z,55.50
2022-11-28T20:46:09.324Z,52.80
2022-11-28T20:48:36.518Z,53.05
2022-11-28T20:51:03.595Z,51.78
2022-11-28T20:53:31.712Z,52.28
2022-11-28T20:56:03.704Z,52.60
2022-11-28T20:58:30.420Z,54.60
2022-11-28T21:00:57.574Z,52.15
2022-11-28T21:03:24.933Z,52.78
2022-11-28T21:05:59.358Z,46.58
2022-11-28T21:08:30.331Z,46.55
2022-11-28T21:10:57.149Z,50.20
2022-11-28T21:13:23.632Z,48.72
2022-11-28T21:15:50.137Z,45.75
2022-11-28T21:18:16.664Z,43.80
2022-11-28T21:20:45.574Z,43.55
2022-11-28T21:23:13.199Z,41.40
2022-11-28T21:25:40.710Z,43.63
2022-11-28T21:28:09.077Z,39.63
2022-11-28T21:30:46.611Z,38.92
2022-11-28T21:33:13.618Z,43.47
2022-11-28T21:35:40.227Z,43.72
2022-11-28T21:38:07.667Z,41.53
2022-11-28T21:40:34.262Z,37.33
2022-11-28T21:43:00.766Z,39.92
2022-11-28T21:45:27.436Z,40.55
2022-11-28T21:47:54.302Z,38.20
2022-11-28T21:50:20.818Z,41.10
2022-11-28T21:52:47.302Z,40.72
2022-11-28T21:55:13.949Z,39.22
2022-11-28T21:57:42.235Z,37.80
2022-11-28T22:00:20.722Z,37.03
2022-11-28T22:03:02.508Z,39.17
2022-11-28T22:05:31.272Z,38.55
2022-11-28T22:07:57.885Z,35.53
2022-11-28T22:10:24.894Z,35.65
2022-11-28T22:12:51.673Z,37.20
2022-11-28T22:15:18.237Z,37.65
2022-11-28T22:17:44.752Z,37.17
2022-11-28T22:20:11.758Z,36.33
2022-11-28T22:22:38.249Z,37.53
2022-11-28T22:25:05.274Z,35.40
2022-11-28T22:27:32.296Z,34.40
2022-11-28T22:29:58.831Z,35.75
2022-11-28T22:32:25.394Z,37.13
2022-11-28T22:34:51.889Z,37.80
2022-11-28T22:37:18.419Z,34.72
2022-11-28T22:39:44.931Z,38.10
2022-11-28T22:42:11.567Z,37.17
2022-11-28T22:44:38.065Z,35.10
2022-11-28T22:47:04.784Z,34.45
2022-11-28T22:49:31.396Z,36.75
2022-11-28T22:51:57.891Z,36.15
2022-11-28T22:54:24.420Z,38.67
2022-11-28T22:56:50.875Z,38.03
2022-11-28T22:59:17.554Z,34.97
2022-11-28T23:01:44.228Z,37.75
2022-11-28T23:04:10.777Z,37.40
2022-11-28T23:06:37.339Z,36.50
2022-11-28T23:09:08.354Z,34.78
2022-11-28T23:11:36.806Z,36.25
2022-11-28T23:14:03.814Z,36.03
2022-11-28T23:16:38.696Z,36.20
2022-11-28T23:19:16.359Z,37.00
2022-11-28T23:21:46.277Z,38.50
2022-11-28T23:24:15.326Z,35.00
2022-11-28T23:26:42.149Z,35.72
2022-11-28T23:29:08.755Z,36.13
2022-11-28T23:31:38.637Z,35.40
2022-11-28T23:34:05.927Z,35.72
2022-11-28T23:36:40.063Z,35.58
2022-11-28T23:39:17.262Z,35.20
2022-11-28T23:41:44.398Z,35.22
2022-11-28T23:44:12.338Z,38.40
2022-11-28T23:46:39.274Z,34.72
2022-11-28T23:49:06.060Z,35.53
2022-11-28T23:51:33.011Z,35.28
2022-11-28T23:53:59.605Z,36.08
2022-11-28T23:56:28.329Z,35.78
2022-11-28T23:58:55.831Z,33.95
